الصفحة الرئيسية
METAR-TAF:

METAR-TAF

مطار :

والس, فرنسا

دائرة عرض: 13-14S, خط طول: 176-10W, ارتفاع: 23 متر

مراقبة الطقس الحالي

تاريخ ووقت الإصدار 10 دقيقة قبل الساعة 05:00UTC
ريح 3 عقدةمن اتجاهات متغيرة
درجة الحرارة 30°درجة مئوية
الرطوبة 79%
ضغط 1008 hPa
الرؤية 10 كم أو أكثر

METAR: NLWW 250500Z AUTO VRB03KT 9999 SCT022/// 30/26 Q1008 NOSIG

زمن: 17:10 (05:10 UTC)

توقعات

تاريخ ووقت الإصدار 6ساعات و 10 دقيقة قبل الساعة 23:00UTC
التوقعات صالحة من25 الساعة 00 UTC إلى 25 الساعة 24 UTC
ريح 10 عقدة من الشرق/الجنوب الشرقي
الرؤية 10 كم أو أكثر
غيوم قليلة على ارتفاع 2000 قدم

TAF: NLWW 242300Z 2500/2524 11010KT 9999 FEW020

أرصاد الطقس والتوقعات من أكثر من 4000 مطار (تقارير الطقس للمطار METAR والتنبؤ بالطقس بالمطارTAF).

المحطات المتاحة هي النقط الصفراء والحمراء على الخريطة.

حرك المؤشر فوق النقطة لمعرفة اسم المحطة.

ثم انقر لمعرفة أرصاد وتوقعات الطقس.

لتغيير الخارطة: اضغط على الأزرار الخضراء مع رمز الصليب الأسود للتكبير. على الزر الأخضر مع شرطة للتصغير، أو على الأسهم الخضراء للخرائط المجاورة.


METAR-TAF: